createdAt,value
2023-02-11T00:01:07.966Z,43.92
2023-02-11T00:03:35.942Z,44.97
2023-02-11T00:06:06.817Z,43.13
2023-02-11T00:08:34.678Z,46.88
2023-02-11T00:11:03.763Z,44.20
2023-02-11T00:13:32.120Z,45.92
2023-02-11T00:15:59.802Z,43.57
2023-02-11T00:18:27.436Z,49.33
2023-02-11T00:20:55.686Z,46.85
2023-02-11T00:23:23.555Z,41.55
2023-02-11T00:25:51.753Z,46.83
2023-02-11T00:28:21.287Z,41.23
2023-02-11T00:30:55.723Z,39.28
2023-02-11T00:33:23.551Z,39.58
2023-02-11T00:35:52.397Z,34.72
2023-02-11T00:38:20.225Z,34.53
2023-02-11T00:40:48.124Z,41.63
2023-02-11T00:43:16.582Z,38.38
2023-02-11T00:45:45.951Z,46.70
2023-02-11T00:48:14.190Z,44.47
2023-02-11T00:50:42.219Z,62.22
2023-02-11T00:53:09.907Z,65.37
2023-02-11T00:55:37.984Z,51.17
2023-02-11T00:58:06.212Z,41.65
2023-02-11T01:00:35.015Z,36.50
2023-02-11T01:03:04.300Z,30.73
2023-02-11T01:05:32.194Z,35.60
2023-02-11T01:08:00.185Z,32.38
2023-02-11T01:10:28.778Z,43.22
2023-02-11T01:12:56.883Z,33.03
2023-02-11T01:15:24.825Z,33.90
2023-02-11T01:17:52.725Z,33.87
2023-02-11T01:20:24.339Z,32.85
2023-02-11T01:22:52.636Z,35.35
2023-02-11T01:25:20.445Z,36.08
2023-02-11T01:27:48.264Z,33.97
2023-02-11T01:30:16.331Z,31.23
2023-02-11T01:32:44.202Z,31.90
2023-02-11T01:35:11.882Z,29.95
2023-02-11T01:37:41.045Z,37.08
2023-02-11T01:40:14.248Z,27.15
2023-02-11T01:42:42.520Z,32.83
2023-02-11T01:45:50.701Z,40.53
2023-02-11T01:48:22.625Z,34.28
2023-02-11T01:50:54.235Z,40.80
2023-02-11T01:53:41.878Z,35.40
2023-02-11T01:56:33.234Z,33.40
2023-02-11T01:59:06.213Z,35.78
2023-02-11T02:01:36.506Z,35.78
2023-02-11T02:04:05.948Z,35.72
2023-02-11T02:06:37.661Z,42.95
2023-02-11T02:09:10.641Z,36.03
2023-02-11T02:11:38.979Z,38.42
2023-02-11T02:14:07.239Z,37.22
2023-02-11T02:16:36.889Z,49.60
2023-02-11T02:19:27.167Z,39.63
2023-02-11T02:22:30.972Z,38.60
2023-02-11T02:25:19.740Z,39.28
2023-02-11T02:27:55.131Z,33.58
2023-02-11T02:30:47.673Z,35.70
2023-02-11T02:33:25.775Z,33.00
2023-02-11T02:36:03.790Z,32.73
2023-02-11T02:38:35.464Z,32.95
2023-02-11T02:41:05.745Z,33.47
2023-02-11T02:43:34.749Z,33.50
2023-02-11T02:46:15.945Z,32.72
2023-02-11T02:48:45.826Z,34.50
2023-02-11T02:51:27.261Z,36.05
2023-02-11T02:54:06.992Z,35.55
2023-02-11T02:56:41.719Z,34.75
2023-02-11T02:59:29.613Z,42.60
2023-02-11T03:02:07.681Z,33.20
2023-02-11T03:08:26.376Z,31.83
2023-02-11T03:10:56.481Z,30.15
2023-02-11T03:13:32.088Z,35.65
2023-02-11T03:16:03.201Z,39.03
2023-02-11T03:18:34.027Z,36.67
2023-02-11T03:21:03.676Z,35.95
2023-02-11T03:23:38.471Z,35.35
2023-02-11T03:26:12.713Z,38.53
2023-02-11T03:28:46.723Z,38.13
2023-02-11T03:31:21.374Z,36.35
2023-02-11T03:33:55.340Z,28.83
2023-02-11T03:36:27.921Z,33.88
2023-02-11T03:38:59.565Z,37.00
2023-02-11T03:41:27.370Z,38.33
2023-02-11T03:43:58.361Z,32.53
2023-02-11T03:46:31.733Z,33.20
2023-02-11T03:49:05.173Z,33.70
2023-02-11T03:51:34.186Z,34.78
2023-02-11T03:54:06.783Z,34.13
2023-02-11T03:56:39.011Z,34.00
2023-02-11T03:59:06.625Z,33.90
2023-02-11T04:01:34.664Z,36.85
2023-02-11T04:04:02.619Z,54.30
2023-02-11T04:06:30.215Z,41.17
2023-02-11T04:08:57.940Z,39.00
2023-02-11T04:11:26.867Z,34.10
2023-02-11T04:13:54.904Z,31.17
2023-02-11T04:16:22.757Z,42.22
2023-02-11T04:18:50.570Z,34.23
2023-02-11T04:21:18.573Z,32.42
2023-02-11T04:23:46.569Z,46.10
2023-02-11T04:26:14.390Z,39.65
2023-02-11T04:28:43.326Z,36.75
2023-02-11T04:31:12.209Z,38.93
2023-02-11T04:33:39.875Z,36.35
2023-02-11T04:36:08.356Z,33.30
2023-02-11T04:38:36.115Z,33.20
2023-02-11T04:41:03.694Z,34.15
2023-02-11T04:43:31.240Z,32.45
2023-02-11T04:46:00.423Z,32.92
2023-02-11T04:48:28.309Z,35.17
2023-02-11T04:50:55.868Z,31.83
2023-02-11T04:53:24.061Z,35.65
2023-02-11T04:55:52.448Z,48.75
2023-02-11T04:58:21.134Z,34.13
2023-02-11T05:00:48.851Z,33.03
2023-02-11T05:03:18.392Z,34.22
2023-02-11T05:05:46.356Z,34.60
2023-02-11T05:08:14.027Z,35.25
2023-02-11T05:10:41.767Z,36.17
2023-02-11T05:13:09.352Z,30.83
2023-02-11T05:15:36.883Z,36.55
2023-02-11T05:18:04.998Z,37.40
2023-02-11T05:20:33.931Z,35.58
2023-02-11T05:23:01.549Z,36.42
2023-02-11T05:25:29.560Z,36.27
2023-02-11T05:27:57.388Z,31.55
2023-02-11T05:30:25.289Z,33.20
2023-02-11T05:32:53.114Z,31.30
2023-02-11T05:35:20.743Z,31.95
2023-02-11T05:37:49.738Z,36.00
2023-02-11T05:40:17.737Z,30.33
2023-02-11T05:42:45.308Z,33.28
2023-02-11T05:45:13.042Z,33.45
2023-02-11T05:47:41.294Z,34.45
2023-02-11T05:50:09.301Z,35.23
2023-02-11T05:52:37.174Z,28.20
2023-02-11T05:55:07.220Z,33.05
2023-02-11T05:57:34.951Z,37.30
2023-02-11T06:00:02.524Z,34.97
2023-02-11T06:02:30.487Z,29.20
2023-02-11T06:04:58.385Z,31.10
2023-02-11T06:07:26.360Z,31.05
2023-02-11T06:09:54.129Z,32.85
2023-02-11T06:12:23.408Z,29.60
2023-02-11T06:14:51.414Z,31.03
2023-02-11T06:17:19.329Z,33.33
2023-02-11T06:19:47.065Z,30.33
2023-02-11T06:22:14.907Z,34.50
2023-02-11T06:25:00.464Z,34.05
2023-02-11T06:27:30.816Z,35.50
2023-02-11T06:29:58.619Z,31.75
2023-02-11T06:32:45.451Z,32.45
2023-02-11T06:35:15.070Z,32.38
2023-02-11T06:37:43.965Z,30.55
2023-02-11T06:40:12.538Z,31.80
2023-02-11T06:42:41.829Z,30.30
2023-02-11T06:45:11.235Z,32.30
2023-02-11T06:47:39.281Z,32.15
2023-02-11T06:50:09.405Z,31.48
2023-02-11T06:52:37.224Z,35.37
2023-02-11T06:55:05.460Z,33.58
2023-02-11T06:57:33.754Z,36.00
2023-02-11T07:00:03.109Z,32.30
2023-02-11T07:02:30.926Z,29.63
2023-02-11T07:04:58.573Z,34.27
2023-02-11T07:07:26.268Z,28.63
2023-02-11T07:09:53.919Z,35.45
2023-02-11T07:12:21.585Z,27.63
2023-02-11T07:14:49.563Z,34.10
2023-02-11T07:17:18.443Z,34.73
2023-02-11T07:19:46.366Z,37.47
2023-02-11T07:22:14.637Z,32.10
2023-02-11T07:24:42.774Z,28.58
2023-02-11T07:27:10.595Z,29.55
2023-02-11T07:29:39.434Z,31.23
2023-02-11T07:32:07.496Z,28.40
2023-02-11T07:34:36.961Z,39.88
2023-02-11T07:37:05.150Z,36.67
2023-02-11T07:39:33.615Z,33.60
2023-02-11T07:42:01.360Z,39.63
2023-02-11T07:44:29.152Z,39.80
2023-02-11T07:46:57.288Z,37.58
2023-02-11T07:49:25.370Z,39.40
2023-02-11T07:51:54.582Z,60.67
2023-02-11T07:54:22.444Z,40.50
2023-02-11T07:56:50.249Z,37.05
2023-02-11T07:59:19.597Z,29.42
2023-02-11T08:01:48.074Z,33.30
2023-02-11T08:04:15.784Z,33.63
2023-02-11T08:06:44.251Z,32.03
2023-02-11T08:09:17.556Z,33.00
2023-02-11T08:11:45.940Z,28.52
2023-02-11T08:14:13.684Z,30.27
2023-02-11T08:16:44.518Z,29.15
2023-02-11T08:19:14.847Z,28.80
2023-02-11T08:21:43.287Z,35.90
2023-02-11T08:24:12.856Z,38.85
2023-02-11T08:26:40.994Z,32.90
2023-02-11T08:29:11.557Z,29.77
2023-02-11T08:31:42.307Z,30.07
2023-02-11T08:34:11.469Z,30.00
2023-02-11T08:36:41.565Z,29.67
2023-02-11T08:39:19.174Z,31.30
2023-02-11T08:41:51.256Z,31.27
2023-02-11T08:44:19.411Z,34.77
2023-02-11T08:46:47.362Z,33.88
2023-02-11T08:49:15.312Z,38.13
2023-02-11T08:51:43.559Z,38.80
2023-02-11T08:54:11.433Z,33.50
2023-02-11T08:56:40.506Z,32.17
2023-02-11T08:59:10.112Z,31.23
2023-02-11T09:01:38.638Z,26.85
2023-02-11T09:04:06.535Z,28.83
2023-02-11T09:06:34.098Z,29.33
2023-02-11T09:09:01.660Z,34.97
2023-02-11T09:11:31.712Z,31.60
2023-02-11T09:13:59.773Z,29.52
2023-02-11T09:16:30.774Z,59.55
2023-02-11T09:18:59.056Z,40.70
2023-02-11T09:21:27.308Z,34.40
2023-02-11T09:23:55.346Z,29.55
2023-02-11T09:26:24.700Z,35.55
2023-02-11T09:28:52.390Z,32.85
2023-02-11T09:31:22.321Z,30.13
2023-02-11T09:33:53.693Z,31.93
2023-02-11T09:36:23.977Z,38.67
2023-02-11T09:38:52.108Z,31.27
2023-02-11T09:41:34.319Z,32.70
2023-02-11T09:44:05.533Z,33.85
2023-02-11T09:46:38.990Z,37.47
2023-02-11T09:49:10.519Z,33.70
2023-02-11T09:51:45.733Z,33.92
2023-02-11T09:54:25.930Z,33.53
2023-02-11T09:56:53.712Z,30.90
2023-02-11T09:59:21.692Z,25.77
2023-02-11T10:01:54.600Z,29.42
2023-02-11T10:04:38.850Z,30.52
2023-02-11T10:07:16.882Z,28.52
2023-02-11T10:09:58.720Z,24.40
2023-02-11T10:12:49.746Z,28.67
2023-02-11T10:15:25.837Z,25.05
2023-02-11T10:18:06.863Z,28.35
2023-02-11T10:20:39.001Z,28.08
2023-02-11T10:23:15.109Z,24.08
2023-02-11T10:25:52.831Z,25.07
2023-02-11T10:28:24.793Z,24.98
2023-02-11T10:30:59.578Z,23.00
2023-02-11T10:33:31.561Z,23.92
2023-02-11T10:36:01.498Z,25.10
2023-02-11T10:38:36.547Z,27.23
2023-02-11T10:41:04.326Z,26.17
2023-02-11T10:43:36.103Z,22.42
2023-02-11T10:46:06.598Z,23.52
2023-02-11T10:48:41.322Z,22.85
2023-02-11T10:51:18.515Z,24.87
2023-02-11T10:53:46.783Z,23.63
2023-02-11T10:56:23.171Z,24.45
2023-02-11T10:58:59.062Z,22.35
2023-02-11T11:01:45.049Z,24.35
2023-02-11T11:04:36.455Z,27.27
2023-02-11T11:07:21.769Z,26.88
2023-02-11T11:09:52.791Z,24.90
2023-02-11T11:12:30.238Z,29.13
2023-02-11T11:15:00.038Z,24.70
2023-02-11T11:17:29.410Z,29.20
2023-02-11T11:20:16.961Z,31.75
2023-02-11T11:22:46.356Z,31.73
2023-02-11T11:25:29.321Z,31.13
2023-02-11T11:27:59.218Z,29.00
2023-02-11T11:30:32.759Z,25.73
2023-02-11T11:33:02.071Z,24.75
2023-02-11T11:35:33.000Z,28.42
2023-02-11T11:38:04.267Z,28.60
2023-02-11T11:40:33.735Z,26.63
2023-02-11T11:43:07.813Z,26.37
2023-02-11T11:45:35.381Z,26.10
2023-02-11T11:48:10.828Z,31.48
2023-02-11T11:50:42.814Z,33.13
2023-02-11T11:53:19.782Z,29.45
2023-02-11T11:55:52.264Z,30.43
2023-02-11T11:58:22.614Z,28.25
2023-02-11T12:00:57.150Z,34.22
2023-02-11T12:04:02.506Z,32.03
2023-02-11T12:06:41.002Z,30.30
2023-02-11T12:09:21.275Z,29.17
2023-02-11T12:12:17.756Z,25.55
2023-02-11T12:14:55.044Z,24.90
2023-02-11T12:17:36.542Z,23.02
2023-02-11T12:20:26.248Z,26.40
2023-02-11T12:23:02.838Z,27.80
2023-02-11T12:25:41.673Z,23.67
2023-02-11T12:28:22.977Z,27.55
2023-02-11T12:31:04.033Z,27.33
2023-02-11T12:33:51.264Z,25.20
2023-02-11T12:36:33.487Z,24.50
2023-02-11T12:39:19.848Z,27.08
2023-02-11T12:42:21.086Z,25.15
2023-02-11T12:45:05.017Z,25.60
2023-02-11T12:47:42.253Z,21.70
2023-02-11T12:50:17.104Z,25.50
2023-02-11T12:52:59.504Z,23.00
2023-02-11T12:55:30.489Z,30.08
2023-02-11T12:58:01.297Z,29.20
2023-02-11T13:00:37.658Z,26.20
2023-02-11T13:03:12.054Z,29.27
2023-02-11T13:05:44.148Z,27.05
2023-02-11T13:08:18.829Z,25.25
2023-02-11T13:10:54.044Z,24.98
2023-02-11T13:13:27.574Z,30.48
2023-02-11T13:16:01.076Z,22.63
2023-02-11T13:18:44.754Z,29.13
2023-02-11T13:21:31.064Z,31.02
2023-02-11T13:24:13.132Z,23.48
2023-02-11T13:26:46.478Z,24.75
2023-02-11T13:29:28.598Z,21.43
2023-02-11T13:31:57.237Z,21.02
2023-02-11T13:34:27.091Z,24.15
2023-02-11T13:36:56.912Z,26.17
2023-02-11T13:39:27.118Z,27.15
2023-02-11T13:42:07.474Z,29.13
2023-02-11T13:44:39.382Z,27.30
2023-02-11T13:47:27.292Z,29.60
2023-02-11T13:49:54.856Z,28.00
2023-02-11T13:52:26.885Z,24.23
2023-02-11T13:54:56.820Z,23.27
2023-02-11T13:57:41.122Z,21.25
2023-02-11T14:00:51.171Z,28.13
2023-02-11T14:03:46.849Z,24.85
2023-02-11T14:06:35.288Z,27.05
2023-02-11T14:09:31.304Z,22.53
2023-02-11T14:12:25.081Z,27.67
2023-02-11T14:15:19.098Z,25.40
2023-02-11T14:17:47.190Z,30.13
2023-02-11T14:20:43.968Z,24.70
2023-02-11T14:23:25.742Z,29.83
2023-02-11T14:26:05.070Z,23.90
2023-02-11T14:28:34.569Z,22.33
2023-02-11T14:31:11.252Z,23.90
2023-02-11T14:34:00.752Z,24.85
2023-02-11T14:36:59.942Z,24.00
2023-02-11T14:39:40.922Z,24.63
2023-02-11T14:42:18.859Z,22.33
2023-02-11T14:44:49.581Z,23.48
2023-02-11T14:47:20.757Z,24.67
2023-02-11T14:49:50.573Z,25.23
2023-02-11T14:52:28.315Z,23.92
2023-02-11T14:55:14.736Z,24.10
2023-02-11T14:57:44.466Z,22.70
2023-02-11T15:00:19.035Z,23.52
2023-02-11T15:02:46.651Z,23.53
2023-02-11T15:05:20.048Z,28.95
2023-02-11T15:07:52.635Z,23.27
2023-02-11T15:10:27.874Z,23.58
2023-02-11T15:12:56.156Z,22.83
2023-02-11T15:15:23.942Z,22.87
2023-02-11T15:17:51.946Z,24.77
2023-02-11T15:20:23.029Z,25.70
2023-02-11T15:22:57.417Z,28.17
2023-02-11T15:25:25.870Z,30.83
2023-02-11T15:27:56.540Z,31.73
2023-02-11T15:30:30.557Z,35.03
2023-02-11T15:33:00.273Z,31.08
2023-02-11T15:35:30.952Z,29.33
2023-02-11T15:38:01.343Z,35.20
2023-02-11T15:40:32.617Z,29.93
2023-02-11T15:43:02.631Z,25.27
2023-02-11T15:45:32.895Z,25.35
2023-02-11T15:48:09.107Z,28.58
2023-02-11T15:50:38.373Z,28.75
2023-02-11T15:53:23.987Z,27.27
2023-02-11T15:55:54.048Z,29.13
2023-02-11T15:58:23.653Z,27.88
2023-02-11T16:00:54.822Z,26.77
2023-02-11T16:03:24.840Z,30.05
2023-02-11T16:05:52.931Z,26.33
2023-02-11T16:08:25.590Z,26.00
2023-02-11T16:10:58.665Z,25.27
2023-02-11T16:13:28.357Z,24.17
2023-02-11T16:16:00.972Z,28.50
2023-02-11T16:18:38.994Z,30.17
2023-02-11T16:21:14.346Z,28.02
2023-02-11T16:23:43.920Z,31.42
2023-02-11T16:26:23.807Z,27.17
2023-02-11T16:28:51.980Z,28.67
2023-02-11T16:31:19.962Z,29.10
2023-02-11T16:33:47.602Z,27.75
2023-02-11T16:36:18.167Z,30.92
2023-02-11T16:38:47.534Z,32.08
2023-02-11T16:41:15.201Z,32.70
2023-02-11T16:43:42.728Z,32.97
2023-02-11T16:46:15.016Z,29.77
2023-02-11T16:48:43.193Z,31.95
2023-02-11T16:51:13.607Z,33.95
2023-02-11T16:53:41.495Z,33.35
2023-02-11T16:56:16.535Z,30.23
2023-02-11T16:58:44.359Z,31.85
2023-02-11T17:01:14.117Z,29.15
2023-02-11T17:03:43.489Z,32.03
2023-02-11T17:06:12.722Z,31.25
2023-02-11T17:08:41.401Z,36.67
2023-02-11T17:11:09.152Z,34.08
2023-02-11T17:13:39.799Z,32.70
2023-02-11T17:16:12.403Z,37.03
2023-02-11T17:18:40.245Z,38.55
2023-02-11T17:21:08.461Z,36.40
2023-02-11T17:23:36.114Z,27.17
2023-02-11T17:26:03.805Z,29.30
2023-02-11T17:28:32.658Z,29.20
2023-02-11T17:31:02.394Z,31.25
2023-02-11T17:33:29.969Z,31.50
2023-02-11T17:35:57.667Z,34.08
2023-02-11T17:38:25.404Z,31.13
2023-02-11T17:40:59.931Z,30.80
2023-02-11T17:43:27.926Z,29.48
2023-02-11T17:45:55.847Z,31.37
2023-02-11T17:48:24.862Z,30.00
2023-02-11T17:50:53.213Z,30.17
2023-02-11T17:53:20.997Z,35.95
2023-02-11T17:55:49.630Z,38.42
2023-02-11T17:58:17.648Z,44.63
2023-02-11T18:00:45.356Z,33.30
2023-02-11T18:03:12.891Z,35.05
2023-02-11T18:05:42.202Z,42.22
2023-02-11T18:08:12.480Z,34.30
2023-02-11T18:10:42.357Z,30.53
2023-02-11T18:13:09.913Z,35.90
2023-02-11T18:15:37.635Z,36.40
2023-02-11T18:18:05.379Z,35.65
2023-02-11T18:20:33.408Z,31.85
2023-02-11T18:23:02.516Z,35.57
2023-02-11T18:25:31.001Z,35.17
2023-02-11T18:27:58.688Z,34.33
2023-02-11T18:30:29.562Z,33.50
2023-02-11T18:32:57.590Z,37.38
2023-02-11T18:35:27.952Z,33.10
2023-02-11T18:37:55.639Z,35.70
2023-02-11T18:40:24.829Z,33.92
2023-02-11T18:42:52.316Z,37.95
2023-02-11T18:45:20.105Z,32.47
2023-02-11T18:47:47.639Z,36.73
2023-02-11T18:50:18.739Z,31.60
2023-02-11T18:52:46.297Z,39.78
2023-02-11T18:55:15.402Z,33.88
2023-02-11T18:57:44.468Z,33.13
2023-02-11T19:00:13.197Z,31.13
2023-02-11T19:02:42.327Z,30.20
2023-02-11T19:05:11.530Z,37.20
2023-02-11T19:07:39.336Z,45.38
2023-02-11T19:10:08.710Z,39.75
2023-02-11T19:12:39.082Z,38.00
2023-02-11T19:15:09.872Z,40.35
2023-02-11T19:17:39.489Z,37.65
2023-02-11T19:20:08.859Z,33.22
2023-02-11T19:22:36.917Z,27.98
2023-02-11T19:25:05.105Z,29.00
2023-02-11T19:27:33.164Z,31.67
2023-02-11T19:30:01.582Z,30.98
2023-02-11T19:32:31.242Z,37.03
2023-02-11T19:34:59.124Z,34.53
2023-02-11T19:37:27.129Z,39.57
2023-02-11T19:39:54.959Z,37.97
2023-02-11T19:42:22.738Z,36.22
2023-02-11T19:44:50.808Z,36.47
2023-02-11T19:47:19.376Z,35.88
2023-02-11T19:49:48.847Z,34.97
2023-02-11T19:52:16.899Z,32.20
2023-02-11T19:54:44.733Z,36.65
2023-02-11T19:57:12.296Z,37.63
2023-02-11T19:59:40.661Z,35.28
2023-02-11T20:02:08.516Z,35.23
2023-02-11T20:04:36.357Z,34.75
2023-02-11T20:07:06.234Z,32.38
2023-02-11T20:09:34.374Z,33.75
2023-02-11T20:12:02.221Z,28.70
2023-02-11T20:14:30.316Z,27.53
2023-02-11T20:16:58.093Z,26.90
2023-02-11T20:19:25.914Z,28.48
2023-02-11T20:21:56.824Z,30.98
2023-02-11T20:24:27.074Z,30.17
2023-02-11T20:26:56.425Z,30.33
2023-02-11T20:29:26.040Z,32.47
2023-02-11T20:31:53.873Z,41.13
2023-02-11T20:34:22.345Z,39.15
2023-02-11T20:36:52.768Z,42.83
2023-02-11T20:39:22.739Z,39.57
2023-02-11T20:41:53.648Z,37.33
2023-02-11T20:44:23.070Z,33.47
2023-02-11T20:46:51.665Z,33.20
2023-02-11T20:49:21.767Z,33.45
2023-02-11T20:51:49.889Z,27.27
2023-02-11T20:54:20.049Z,29.00
2023-02-11T20:56:49.924Z,29.58
2023-02-11T20:59:21.068Z,25.98
2023-02-11T21:01:50.864Z,25.13
2023-02-11T21:04:20.821Z,24.00
2023-02-11T21:06:52.122Z,23.75
2023-02-11T21:09:22.066Z,24.83
2023-02-11T21:11:51.758Z,29.27
2023-02-11T21:14:22.655Z,31.35
2023-02-11T21:16:50.997Z,29.77
2023-02-11T21:19:18.807Z,24.70
2023-02-11T21:21:46.888Z,29.17
2023-02-11T21:24:14.842Z,31.15
2023-02-11T21:26:43.071Z,30.42
2023-02-11T21:29:11.585Z,35.17
2023-02-11T21:31:41.551Z,33.72
2023-02-11T21:34:09.716Z,28.85
2023-02-11T21:36:38.160Z,29.92
2023-02-11T21:39:06.126Z,32.83
2023-02-11T21:41:35.052Z,31.60
2023-02-11T21:44:03.154Z,28.77
2023-02-11T21:46:31.394Z,30.58
2023-02-11T21:49:01.287Z,25.23
2023-02-11T21:51:29.432Z,26.58
2023-02-11T21:53:59.033Z,29.27
2023-02-11T21:56:28.335Z,30.23
2023-02-11T21:58:58.226Z,28.75
2023-02-11T22:01:28.596Z,28.38
2023-02-11T22:03:56.886Z,26.33
2023-02-11T22:06:28.311Z,29.17
2023-02-11T22:08:56.690Z,26.80
2023-02-11T22:11:25.390Z,26.88
2023-02-11T22:13:55.536Z,35.28
2023-02-11T22:16:24.031Z,32.70
2023-02-11T22:18:52.608Z,27.70
2023-02-11T22:21:23.233Z,32.85
2023-02-11T22:23:52.847Z,28.88
2023-02-11T22:26:22.405Z,33.55
2023-02-11T22:28:51.162Z,30.00
2023-02-11T22:31:21.753Z,31.93
2023-02-11T22:33:49.875Z,30.85
2023-02-11T22:36:20.686Z,33.70
2023-02-11T22:38:49.331Z,31.27
2023-02-11T22:41:20.027Z,37.17
2023-02-11T22:43:48.749Z,33.83
2023-02-11T22:46:18.312Z,33.60
2023-02-11T22:48:46.817Z,35.17
2023-02-11T22:51:17.783Z,37.20
2023-02-11T22:53:45.778Z,34.45
2023-02-11T22:56:15.843Z,33.90
2023-02-11T22:58:45.636Z,38.05
2023-02-11T23:01:14.216Z,37.08
2023-02-11T23:03:42.783Z,44.47
2023-02-11T23:06:11.973Z,39.63
2023-02-11T23:08:42.812Z,35.73
2023-02-11T23:11:14.115Z,34.05
2023-02-11T23:13:43.728Z,35.53
2023-02-11T23:16:16.598Z,37.72
2023-02-11T23:18:45.767Z,37.22
2023-02-11T23:21:16.596Z,31.50
2023-02-11T23:23:45.431Z,29.85
2023-02-11T23:26:14.979Z,31.17
2023-02-11T23:28:46.051Z,33.28
2023-02-11T23:31:18.891Z,29.52
2023-02-11T23:33:47.924Z,30.67
2023-02-11T23:36:16.463Z,34.03
2023-02-11T23:38:44.735Z,28.27
2023-02-11T23:41:13.796Z,34.58
2023-02-11T23:43:42.271Z,32.25
2023-02-11T23:46:10.865Z,32.17
2023-02-11T23:48:41.162Z,32.97
2023-02-11T23:51:11.013Z,32.33
2023-02-11T23:53:39.410Z,29.50
2023-02-11T23:56:08.975Z,34.00
2023-02-11T23:58:38.074Z,31.67
